createdAt,value
2023-05-09T00:00:05.806Z,0.00
2023-05-09T00:01:05.698Z,0.00
2023-05-09T00:02:05.646Z,0.00
2023-05-09T00:03:05.592Z,0.00
2023-05-09T00:04:05.489Z,0.00
2023-05-09T00:05:05.425Z,0.00
2023-05-09T00:06:05.317Z,0.00
2023-05-09T00:07:05.223Z,0.00
2023-05-09T00:08:05.156Z,0.00
2023-05-09T00:09:05.072Z,0.00
2023-05-09T00:10:05.025Z,0.00
2023-05-09T00:11:05.019Z,0.00
2023-05-09T00:12:04.832Z,0.00
2023-05-09T00:13:04.785Z,0.00
2023-05-09T00:14:04.679Z,0.00
2023-05-09T00:15:04.597Z,0.00
2023-05-09T00:16:04.533Z,0.00
2023-05-09T00:17:04.438Z,0.00
2023-05-09T00:18:04.390Z,0.00
2023-05-09T00:19:04.289Z,0.00
2023-05-09T00:20:04.218Z,0.00
2023-05-09T00:21:04.149Z,0.00
2023-05-09T00:22:04.049Z,0.00
2023-05-09T00:23:03.979Z,0.00
2023-05-09T00:24:03.891Z,0.00
2023-05-09T00:25:03.825Z,0.00
2023-05-09T00:26:03.736Z,0.00
2023-05-09T00:27:03.756Z,0.00
2023-05-09T00:28:03.572Z,0.00
2023-05-09T00:29:03.507Z,0.00
2023-05-09T00:30:03.424Z,0.00
2023-05-09T00:31:03.341Z,0.00
2023-05-09T00:32:03.312Z,0.00
2023-05-09T00:33:03.272Z,0.00
2023-05-09T00:34:03.109Z,0.00
2023-05-09T00:35:03.023Z,0.00
2023-05-09T00:36:02.952Z,0.00
2023-05-09T00:37:02.874Z,0.00
2023-05-09T00:38:02.814Z,0.00
2023-05-09T00:39:02.712Z,0.00
2023-05-09T00:40:02.632Z,0.00
2023-05-09T00:41:02.571Z,0.00
2023-05-09T00:42:02.483Z,0.00
2023-05-09T00:43:02.514Z,0.00
2023-05-09T00:44:02.327Z,0.00
2023-05-09T00:45:02.237Z,0.00
2023-05-09T00:46:02.261Z,0.00
2023-05-09T00:47:02.106Z,0.00
2023-05-09T00:48:02.027Z,0.00
2023-05-09T00:49:01.948Z,0.00
2023-05-09T00:50:01.850Z,0.00
2023-05-09T00:51:01.769Z,0.00
2023-05-09T00:52:01.685Z,0.00
2023-05-09T00:53:01.615Z,0.00
2023-05-09T00:54:01.549Z,0.00
2023-05-09T00:55:01.446Z,0.00
2023-05-09T00:56:01.379Z,0.00
2023-05-09T00:57:01.319Z,0.00
2023-05-09T00:58:01.220Z,0.00
2023-05-09T00:59:01.242Z,0.00
2023-05-09T01:00:01.074Z,0.00
2023-05-09T01:01:00.997Z,0.00
2023-05-09T01:02:00.926Z,0.00
2023-05-09T01:03:00.949Z,0.00
2023-05-09T01:04:00.749Z,0.00
2023-05-09T01:05:00.681Z,0.00
2023-05-09T01:06:00.597Z,0.00
2023-05-09T01:07:00.507Z,0.00
2023-05-09T01:08:00.440Z,0.00
2023-05-09T01:09:00.356Z,0.00
2023-05-09T01:10:00.276Z,0.00
2023-05-09T01:11:00.209Z,0.00
2023-05-09T01:12:00.168Z,0.00
2023-05-09T01:13:00.192Z,0.00
2023-05-09T01:13:59.962Z,0.00
2023-05-09T01:14:59.989Z,0.00
2023-05-09T01:15:59.844Z,0.00
2023-05-09T01:16:59.751Z,0.00
2023-05-09T01:17:59.665Z,0.00
2023-05-09T01:18:59.569Z,0.00
2023-05-09T01:19:59.491Z,0.00
2023-05-09T01:20:59.410Z,0.00
2023-05-09T01:21:59.329Z,0.00
2023-05-09T01:22:59.254Z,0.00
2023-05-09T01:23:59.180Z,0.00
2023-05-09T01:24:59.095Z,0.00
2023-05-09T01:25:59.012Z,0.00
2023-05-09T01:26:58.947Z,0.00
2023-05-09T01:27:58.856Z,0.00
2023-05-09T01:28:58.793Z,0.00
2023-05-09T01:29:58.707Z,0.00
2023-05-09T01:30:58.806Z,0.00
2023-05-09T01:31:58.563Z,0.00
2023-05-09T01:32:58.556Z,0.00
2023-05-09T01:33:58.406Z,0.00
2023-05-09T01:34:58.307Z,0.00
2023-05-09T01:35:58.230Z,0.00
2023-05-09T01:36:58.157Z,0.00
2023-05-09T01:37:58.074Z,0.00
2023-05-09T01:38:57.992Z,0.00
2023-05-09T01:39:57.915Z,0.00
2023-05-09T01:40:57.837Z,0.00
2023-05-09T01:41:57.751Z,0.00
2023-05-09T01:42:57.686Z,0.00
2023-05-09T01:43:57.627Z,0.00
2023-05-09T01:44:57.524Z,0.00
2023-05-09T01:45:57.453Z,0.00
2023-05-09T01:46:57.587Z,0.00
2023-05-09T01:47:57.330Z,0.00
2023-05-09T01:48:57.201Z,0.00
2023-05-09T01:49:57.130Z,0.00
2023-05-09T01:50:57.048Z,0.00
2023-05-09T01:51:56.969Z,0.00
2023-05-09T01:52:56.892Z,0.00
2023-05-09T01:53:56.818Z,0.00
2023-05-09T01:54:56.732Z,0.00
2023-05-09T01:55:56.650Z,0.00
2023-05-09T01:56:56.589Z,0.00
2023-05-09T01:57:56.505Z,0.00
2023-05-09T01:58:56.415Z,0.00
2023-05-09T01:59:56.342Z,0.00
2023-05-09T02:00:56.298Z,0.00
2023-05-09T02:01:56.189Z,0.00
2023-05-09T02:02:56.373Z,0.00
2023-05-09T02:03:56.017Z,0.00
2023-05-09T02:04:55.941Z,0.00
2023-05-09T02:05:55.861Z,0.00
2023-05-09T02:06:55.791Z,0.00
2023-05-09T02:07:55.704Z,0.00
2023-05-09T02:08:55.630Z,0.00
2023-05-09T02:09:55.554Z,0.00
2023-05-09T02:10:55.469Z,0.00
2023-05-09T02:11:55.389Z,0.00
2023-05-09T02:12:55.354Z,0.00
2023-05-09T02:13:55.241Z,0.00
2023-05-09T02:14:55.153Z,0.00
2023-05-09T02:15:55.072Z,0.00
2023-05-09T02:16:55.033Z,0.00
2023-05-09T02:17:54.919Z,0.00
2023-05-09T02:18:54.944Z,0.00
2023-05-09T02:19:54.757Z,0.00
2023-05-09T02:20:54.730Z,0.00
2023-05-09T02:21:54.604Z,0.00
2023-05-09T02:22:54.516Z,0.00
2023-05-09T02:23:54.450Z,0.00
2023-05-09T02:24:54.361Z,0.00
2023-05-09T02:25:54.279Z,0.00
2023-05-09T02:26:54.202Z,0.00
2023-05-09T02:27:54.129Z,0.00
2023-05-09T02:28:54.051Z,0.00
2023-05-09T02:29:53.968Z,0.00
2023-05-09T02:30:53.890Z,0.00
2023-05-09T02:31:53.827Z,0.00
2023-05-09T02:32:53.803Z,0.00
2023-05-09T02:33:53.653Z,0.00
2023-05-09T02:34:53.681Z,0.00
2023-05-09T02:35:53.504Z,0.00
2023-05-09T02:36:53.423Z,0.00
2023-05-09T02:37:53.337Z,0.00
2023-05-09T02:38:53.263Z,0.00
2023-05-09T02:39:53.175Z,0.00
2023-05-09T02:40:53.098Z,0.00
2023-05-09T02:41:53.017Z,0.00
2023-05-09T02:42:52.949Z,0.00
2023-05-09T02:43:52.867Z,0.00
2023-05-09T02:44:52.784Z,0.00
2023-05-09T02:45:52.770Z,0.00
2023-05-09T02:46:52.627Z,0.00
2023-05-09T02:47:52.570Z,0.00
2023-05-09T02:48:52.469Z,0.00
2023-05-09T02:49:52.390Z,0.00
2023-05-09T02:50:52.401Z,0.00
2023-05-09T02:51:52.225Z,0.00
2023-05-09T02:52:52.166Z,0.00
2023-05-09T02:53:52.076Z,0.00
2023-05-09T02:54:52.001Z,0.00
2023-05-09T02:55:51.906Z,0.00
2023-05-09T02:56:51.871Z,0.00
2023-05-09T02:57:58.969Z,0.00
2023-05-09T02:58:51.683Z,0.00
2023-05-09T02:59:51.593Z,0.00
2023-05-09T03:00:51.543Z,0.00
2023-05-09T03:01:51.458Z,0.00
2023-05-09T03:02:51.443Z,0.00
2023-05-09T03:03:51.435Z,0.00
2023-05-09T03:04:51.198Z,0.00
2023-05-09T03:05:51.128Z,0.00
2023-05-09T03:06:51.149Z,0.00
2023-05-09T03:07:50.967Z,0.00
2023-05-09T03:08:50.884Z,0.00
2023-05-09T03:09:50.804Z,0.00
2023-05-09T03:10:50.724Z,0.00
2023-05-09T03:11:50.642Z,0.00
2023-05-09T03:12:50.581Z,0.00
2023-05-09T03:13:50.493Z,0.00
2023-05-09T03:14:50.414Z,0.00
2023-05-09T03:15:50.363Z,0.00
2023-05-09T03:16:50.261Z,0.00
2023-05-09T03:17:50.209Z,0.00
2023-05-09T03:18:50.094Z,0.00
2023-05-09T03:19:50.018Z,0.00
2023-05-09T03:20:49.935Z,0.00
2023-05-09T03:21:49.852Z,0.00
2023-05-09T03:22:49.889Z,0.00
2023-05-09T03:23:49.705Z,0.00
2023-05-09T03:24:49.625Z,0.00
2023-05-09T03:25:49.541Z,0.00
2023-05-09T03:26:49.459Z,0.00
2023-05-09T03:27:49.467Z,0.00
2023-05-09T03:28:49.300Z,0.00
2023-05-09T03:29:49.218Z,0.00
2023-05-09T03:30:49.149Z,0.00
2023-05-09T03:31:49.146Z,0.00
2023-05-09T03:32:48.999Z,0.00
2023-05-09T03:33:48.912Z,0.00
2023-05-09T03:34:48.844Z,0.00
2023-05-09T03:35:48.744Z,0.00
2023-05-09T03:36:48.677Z,0.00
2023-05-09T03:37:48.598Z,0.00
2023-05-09T03:38:48.618Z,0.00
2023-05-09T03:39:48.434Z,0.00
2023-05-09T03:40:48.356Z,0.00
2023-05-09T03:41:48.271Z,0.00
2023-05-09T03:42:48.213Z,0.00
2023-05-09T03:43:48.138Z,0.00
2023-05-09T03:44:48.039Z,0.00
2023-05-09T03:45:47.953Z,0.00
2023-05-09T03:46:47.901Z,0.00
2023-05-09T03:47:47.860Z,0.00
2023-05-09T03:48:47.721Z,0.00
2023-05-09T03:49:47.649Z,0.00
2023-05-09T03:50:47.572Z,0.00
2023-05-09T03:51:47.484Z,0.00
2023-05-09T03:52:47.407Z,0.00
2023-05-09T03:53:47.330Z,0.00
2023-05-09T03:54:47.352Z,0.00
2023-05-09T03:55:47.173Z,0.00
2023-05-09T03:56:47.085Z,0.00
2023-05-09T03:57:47.008Z,0.00
2023-05-09T03:58:46.928Z,0.00
2023-05-09T03:59:46.848Z,0.00
2023-05-09T04:00:46.780Z,0.00
2023-05-09T04:01:46.707Z,0.00
2023-05-09T04:02:46.660Z,0.00
2023-05-09T04:03:46.655Z,0.00
2023-05-09T04:04:46.465Z,0.00
2023-05-09T04:05:46.378Z,0.00
2023-05-09T04:06:46.289Z,0.00
2023-05-09T04:07:46.224Z,0.00
2023-05-09T04:08:46.132Z,0.00
2023-05-09T04:09:46.055Z,0.00
2023-05-09T04:10:46.105Z,0.00
2023-05-09T04:11:45.907Z,0.00
2023-05-09T04:12:45.832Z,0.00
2023-05-09T04:13:45.739Z,0.00
2023-05-09T04:14:48.204Z,0.00
2023-05-09T04:15:45.583Z,0.00
2023-05-09T04:16:45.545Z,5.63
2023-05-09T04:17:45.486Z,5.63
2023-05-09T04:18:45.345Z,5.63
2023-05-09T04:19:45.266Z,5.63
2023-05-09T04:20:45.197Z,5.63
2023-05-09T04:21:45.105Z,5.63
2023-05-09T04:22:46.802Z,5.63
2023-05-09T04:23:44.951Z,5.63
2023-05-09T04:24:44.870Z,5.63
2023-05-09T04:25:44.791Z,5.63
2023-05-09T04:26:44.820Z,5.63
2023-05-09T04:27:44.629Z,5.63
2023-05-09T04:28:44.550Z,5.63
2023-05-09T04:29:44.476Z,5.63
2023-05-09T04:30:44.423Z,5.63
2023-05-09T04:31:44.566Z,5.63
2023-05-09T04:32:44.256Z,5.63
2023-05-09T04:33:44.148Z,5.63
2023-05-09T04:34:44.083Z,5.63
2023-05-09T04:35:44.007Z,5.63
2023-05-09T04:36:43.916Z,5.63
2023-05-09T04:37:43.841Z,5.63
2023-05-09T04:38:43.757Z,5.63
2023-05-09T04:39:43.673Z,5.63
2023-05-09T04:40:43.651Z,5.63
2023-05-09T04:41:43.533Z,11.25
2023-05-09T04:42:43.552Z,11.25
2023-05-09T04:43:43.367Z,11.25
2023-05-09T04:44:43.292Z,11.25
2023-05-09T04:45:43.202Z,11.25
2023-05-09T04:46:43.159Z,11.25
2023-05-09T04:47:43.051Z,11.25
2023-05-09T04:48:42.963Z,11.25
2023-05-09T04:49:42.882Z,11.25
2023-05-09T04:50:42.809Z,11.25
2023-05-09T04:51:42.732Z,11.25
2023-05-09T04:52:42.672Z,11.25
2023-05-09T04:53:42.566Z,11.25
2023-05-09T04:54:42.496Z,11.25
2023-05-09T04:55:42.406Z,11.25
2023-05-09T04:56:42.336Z,11.25
2023-05-09T04:57:42.249Z,11.25
2023-05-09T04:58:42.274Z,11.25
2023-05-09T04:59:42.088Z,11.25
2023-05-09T05:00:42.017Z,11.25
2023-05-09T05:01:41.971Z,11.25
2023-05-09T05:02:41.905Z,16.88
2023-05-09T05:03:41.776Z,16.88
2023-05-09T05:04:41.754Z,16.88
2023-05-09T05:05:41.667Z,16.88
2023-05-09T05:06:41.536Z,16.88
2023-05-09T05:07:41.456Z,16.88
2023-05-09T05:08:41.386Z,16.88
2023-05-09T05:09:41.304Z,16.88
2023-05-09T05:10:41.220Z,16.88
2023-05-09T05:11:45.073Z,16.88
2023-05-09T05:12:41.086Z,16.88
2023-05-09T05:13:40.982Z,16.88
2023-05-09T05:14:41.014Z,16.88
2023-05-09T05:15:40.828Z,16.88
2023-05-09T05:16:40.755Z,16.88
2023-05-09T05:17:40.689Z,16.88
2023-05-09T05:18:40.597Z,16.88
2023-05-09T05:19:40.499Z,16.88
2023-05-09T05:20:40.421Z,16.88
2023-05-09T05:21:40.347Z,16.88
2023-05-09T05:22:40.263Z,16.88
2023-05-09T05:23:40.199Z,16.88
2023-05-09T05:24:40.106Z,16.88
2023-05-09T05:25:40.042Z,16.88
2023-05-09T05:26:39.950Z,16.88
2023-05-09T05:27:39.877Z,16.88
2023-05-09T05:28:39.786Z,16.88
2023-05-09T05:29:39.720Z,16.88
2023-05-09T05:30:39.745Z,16.88
2023-05-09T05:31:39.562Z,16.88
2023-05-09T05:32:39.514Z,16.88
2023-05-09T05:33:39.390Z,16.88
2023-05-09T05:34:39.318Z,16.88
2023-05-09T05:35:39.256Z,22.50
2023-05-09T05:36:39.148Z,22.50
2023-05-09T05:37:39.079Z,22.50
2023-05-09T05:38:38.991Z,22.50
2023-05-09T05:39:38.917Z,22.50
2023-05-09T05:40:38.843Z,28.13
2023-05-09T05:41:38.760Z,28.13
2023-05-09T05:42:38.679Z,22.50
2023-05-09T05:43:38.604Z,28.13
2023-05-09T05:44:38.569Z,22.50
2023-05-09T05:45:38.451Z,28.13
2023-05-09T05:46:38.464Z,22.50
2023-05-09T05:47:38.374Z,22.50
2023-05-09T05:48:38.206Z,28.13
2023-05-09T05:49:38.122Z,28.13
2023-05-09T05:50:38.044Z,28.13
2023-05-09T05:51:37.975Z,28.13
2023-05-09T05:52:37.886Z,28.13
2023-05-09T05:53:37.799Z,28.13
2023-05-09T05:54:37.720Z,28.13
2023-05-09T05:55:37.644Z,28.13
2023-05-09T05:56:37.568Z,28.13
2023-05-09T05:57:37.485Z,28.13
2023-05-09T05:58:37.397Z,28.13
2023-05-09T05:59:37.330Z,28.13
2023-05-09T06:00:37.254Z,28.13
2023-05-09T06:01:37.169Z,28.13
2023-05-09T06:02:37.303Z,22.50
2023-05-09T06:03:37.159Z,22.50
2023-05-09T06:04:36.935Z,22.50
2023-05-09T06:05:36.849Z,22.50
2023-05-09T06:06:36.768Z,22.50
2023-05-09T06:07:36.687Z,22.50
2023-05-09T06:08:36.611Z,22.50
2023-05-09T06:09:36.535Z,22.50
2023-05-09T06:10:36.461Z,22.50
2023-05-09T06:11:36.372Z,22.50
2023-05-09T06:12:36.300Z,22.50
2023-05-09T06:13:36.222Z,22.50
2023-05-09T06:14:36.142Z,22.50
2023-05-09T06:15:36.062Z,22.50
2023-05-09T06:17:35.930Z,28.13
2023-05-09T06:18:35.926Z,28.13
2023-05-09T06:19:35.741Z,28.13
2023-05-09T06:20:35.659Z,28.13
2023-05-09T06:21:35.590Z,28.13
2023-05-09T06:22:35.508Z,28.13
2023-05-09T06:23:35.432Z,28.13
2023-05-09T06:24:36.524Z,28.13
2023-05-09T06:25:35.270Z,28.13
2023-05-09T06:26:35.200Z,28.13
2023-05-09T06:27:35.113Z,28.13
2023-05-09T06:28:35.027Z,28.13
2023-05-09T06:29:34.953Z,28.13
2023-05-09T06:30:34.874Z,28.13
2023-05-09T06:31:34.799Z,28.13
2023-05-09T06:32:34.735Z,28.13
2023-05-09T06:33:34.646Z,28.13
2023-05-09T06:34:34.657Z,28.13
2023-05-09T06:35:34.475Z,33.75
2023-05-09T06:36:34.396Z,33.75
2023-05-09T06:37:34.318Z,33.75
2023-05-09T06:38:34.244Z,33.75
2023-05-09T06:39:34.174Z,33.75
2023-05-09T06:40:34.113Z,33.75
2023-05-09T06:41:34.021Z,33.75
2023-05-09T06:42:33.927Z,33.75
2023-05-09T06:43:33.848Z,39.38
2023-05-09T06:44:33.771Z,39.38
2023-05-09T06:45:33.730Z,39.38
2023-05-09T06:46:33.666Z,39.38
2023-05-09T06:47:33.590Z,45.00
2023-05-09T06:48:33.454Z,45.00
2023-05-09T06:49:33.370Z,45.00
2023-05-09T06:50:33.397Z,45.00
2023-05-09T06:51:33.217Z,50.63
2023-05-09T06:52:33.134Z,50.63
2023-05-09T06:53:33.062Z,50.63
2023-05-09T06:54:32.981Z,50.63
2023-05-09T06:55:32.902Z,56.25
2023-05-09T06:56:32.817Z,56.25
2023-05-09T06:57:32.752Z,56.25
2023-05-09T06:58:32.657Z,56.25
2023-05-09T06:59:32.581Z,61.88
2023-05-09T07:00:32.521Z,61.88
2023-05-09T07:01:32.447Z,61.88
2023-05-09T07:02:32.437Z,67.50
2023-05-09T07:03:32.277Z,67.50
2023-05-09T07:04:32.208Z,73.13
2023-05-09T07:05:32.172Z,78.75
2023-05-09T07:06:32.043Z,78.75
2023-05-09T07:07:31.958Z,67.50
2023-05-09T07:08:31.872Z,56.25
2023-05-09T07:09:31.810Z,50.63
2023-05-09T07:10:31.716Z,50.63
2023-05-09T07:11:31.658Z,56.25
2023-05-09T07:12:31.556Z,50.63
2023-05-09T07:13:31.483Z,45.00
2023-05-09T07:14:31.408Z,56.25
2023-05-09T07:15:41.228Z,73.13
2023-05-09T07:16:31.269Z,73.13
2023-05-09T07:17:31.189Z,84.38
2023-05-09T07:18:31.083Z,78.75
2023-05-09T07:19:31.012Z,118.13
2023-05-09T07:20:30.936Z,123.75
2023-05-09T07:21:30.874Z,123.75
2023-05-09T07:22:32.658Z,129.38
2023-05-09T07:23:30.696Z,135.00
2023-05-09T07:24:30.622Z,140.63
2023-05-09T07:25:30.539Z,146.25
2023-05-09T07:26:30.473Z,151.88
2023-05-09T07:27:30.388Z,157.50
2023-05-09T07:28:30.320Z,163.13
2023-05-09T07:29:30.226Z,163.13
2023-05-09T07:30:30.153Z,168.75
2023-05-09T07:31:30.095Z,174.38
2023-05-09T07:32:30.012Z,174.38
2023-05-09T07:33:29.912Z,180.00
2023-05-09T07:34:29.853Z,185.63
2023-05-09T07:35:29.753Z,185.63
2023-05-09T07:36:29.690Z,191.25
2023-05-09T07:37:29.600Z,196.88
2023-05-09T07:38:29.613Z,196.88
2023-05-09T07:39:29.448Z,196.88
2023-05-09T07:40:29.363Z,196.88
2023-05-09T07:41:29.284Z,174.38
2023-05-09T07:42:29.205Z,196.88
2023-05-09T07:43:29.128Z,202.50
2023-05-09T07:44:29.050Z,191.25
2023-05-09T07:45:29.034Z,146.25
2023-05-09T07:46:28.937Z,168.75
2023-05-09T07:47:28.851Z,174.38
2023-05-09T07:48:28.739Z,168.75
2023-05-09T07:49:28.669Z,202.50
2023-05-09T07:50:28.583Z,151.88
2023-05-09T07:51:28.508Z,185.63
2023-05-09T07:52:28.428Z,168.75
2023-05-09T07:53:28.346Z,168.75
2023-05-09T07:54:28.376Z,140.63
2023-05-09T07:55:28.197Z,180.00
2023-05-09T07:56:28.123Z,185.63
2023-05-09T07:57:28.041Z,191.25
2023-05-09T07:58:27.968Z,174.38
2023-05-09T07:59:27.891Z,191.25
2023-05-09T08:00:27.818Z,180.00
2023-05-09T08:01:27.729Z,146.25
2023-05-09T08:02:27.711Z,151.88
2023-05-09T08:03:27.662Z,174.38
2023-05-09T08:04:27.514Z,185.63
2023-05-09T08:05:27.443Z,157.50
2023-05-09T08:06:27.347Z,140.63
2023-05-09T08:07:27.263Z,118.13
2023-05-09T08:08:27.194Z,129.38
2023-05-09T08:09:27.115Z,151.88
2023-05-09T08:10:27.145Z,157.50
2023-05-09T08:11:26.957Z,180.00
2023-05-09T08:12:26.892Z,191.25
2023-05-09T08:13:26.849Z,174.38
2023-05-09T08:14:26.722Z,157.50
2023-05-09T08:15:26.648Z,168.75
2023-05-09T08:16:26.596Z,185.63
2023-05-09T08:17:26.530Z,174.38
2023-05-09T08:18:26.430Z,163.13
2023-05-09T08:19:26.448Z,174.38
2023-05-09T08:20:26.274Z,151.88
2023-05-09T08:21:26.192Z,151.88
2023-05-09T08:22:26.116Z,168.75
2023-05-09T08:23:26.039Z,208.13
2023-05-09T08:24:25.964Z,208.13
2023-05-09T08:25:25.895Z,213.75
2023-05-09T08:26:25.926Z,213.75
2023-05-09T08:27:25.748Z,213.75
2023-05-09T08:28:25.662Z,213.75
2023-05-09T08:29:25.583Z,213.75
2023-05-09T08:30:25.496Z,219.38
2023-05-09T08:31:25.454Z,219.38
2023-05-09T08:32:25.345Z,219.38
2023-05-09T08:33:25.272Z,219.38
2023-05-09T08:34:25.193Z,219.38
2023-05-09T08:35:25.130Z,219.38
2023-05-09T08:36:25.051Z,219.38
2023-05-09T08:37:24.980Z,219.38
2023-05-09T08:38:24.892Z,219.38
2023-05-09T08:39:24.820Z,219.38
2023-05-09T08:40:24.742Z,219.38
2023-05-09T08:41:24.669Z,225.00
2023-05-09T08:42:26.358Z,225.00
2023-05-09T08:43:24.510Z,225.00
2023-05-09T08:44:24.434Z,225.00
2023-05-09T08:45:24.362Z,225.00
2023-05-09T08:46:24.339Z,225.00
2023-05-09T08:47:24.227Z,225.00
2023-05-09T08:48:24.133Z,225.00
2023-05-09T08:49:24.054Z,225.00
2023-05-09T08:50:23.990Z,225.00
2023-05-09T08:51:23.904Z,225.00
2023-05-09T08:52:23.826Z,225.00
2023-05-09T08:53:23.741Z,225.00
2023-05-09T08:54:23.668Z,225.00
2023-05-09T08:55:23.604Z,230.63
2023-05-09T08:56:23.514Z,230.63
2023-05-09T08:57:23.442Z,230.63
2023-05-09T08:58:23.479Z,230.63
2023-05-09T08:59:23.297Z,230.63
2023-05-09T09:00:23.543Z,230.63
2023-05-09T09:01:23.162Z,230.63
2023-05-09T09:02:23.061Z,230.63
2023-05-09T09:03:22.991Z,230.63
2023-05-09T09:04:22.953Z,230.63
2023-05-09T09:05:39.881Z,230.63
2023-05-09T09:06:22.770Z,230.63
2023-05-09T09:07:22.685Z,230.63
2023-05-09T09:08:22.618Z,230.63
2023-05-09T09:09:22.539Z,230.63
2023-05-09T09:10:22.455Z,230.63
2023-05-09T09:11:22.399Z,230.63
2023-05-09T09:12:22.302Z,225.00
2023-05-09T09:13:22.252Z,225.00
2023-05-09T09:14:22.248Z,219.38
2023-05-09T09:15:22.083Z,225.00
2023-05-09T09:16:22.076Z,225.00
2023-05-09T09:17:21.937Z,225.00
2023-05-09T09:18:21.865Z,225.00
2023-05-09T09:19:21.783Z,225.00
2023-05-09T09:20:21.703Z,225.00
2023-05-09T09:21:21.622Z,219.38
2023-05-09T09:22:21.588Z,219.38
2023-05-09T09:23:21.486Z,219.38
2023-05-09T09:24:21.429Z,225.00
2023-05-09T09:25:21.319Z,219.38
2023-05-09T09:26:21.253Z,219.38
2023-05-09T09:27:21.177Z,219.38
2023-05-09T09:28:21.100Z,219.38
2023-05-09T09:29:21.066Z,219.38
2023-05-09T09:30:21.047Z,219.38
2023-05-09T09:31:20.973Z,219.38
2023-05-09T09:32:21.101Z,219.38
2023-05-09T09:33:20.725Z,219.38
2023-05-09T09:34:20.646Z,219.38
2023-05-09T09:35:20.592Z,219.38
2023-05-09T09:36:20.500Z,219.38
2023-05-09T09:37:20.418Z,219.38
2023-05-09T09:38:20.351Z,219.38
2023-05-09T09:39:20.287Z,219.38
2023-05-09T09:40:20.254Z,219.38
2023-05-09T09:41:20.128Z,219.38
2023-05-09T09:42:20.062Z,219.38
2023-05-09T09:43:19.970Z,219.38
2023-05-09T09:44:19.909Z,219.38
2023-05-09T09:45:19.825Z,219.38
2023-05-09T09:46:19.883Z,225.00
2023-05-09T09:47:19.681Z,225.00
2023-05-09T09:48:19.621Z,225.00
2023-05-09T09:49:19.518Z,225.00
2023-05-09T09:50:19.515Z,225.00
2023-05-09T09:51:19.372Z,225.00
2023-05-09T09:52:19.301Z,219.38
2023-05-09T09:53:19.218Z,219.38
2023-05-09T09:54:19.155Z,219.38
2023-05-09T09:55:19.075Z,219.38
2023-05-09T09:56:19.007Z,219.38
2023-05-09T09:57:18.923Z,219.38
2023-05-09T09:58:18.853Z,219.38
2023-05-09T09:59:18.807Z,219.38
2023-05-09T10:00:18.758Z,225.00
2023-05-09T10:01:18.733Z,225.00
2023-05-09T10:02:18.657Z,225.00
2023-05-09T10:03:18.602Z,225.00
2023-05-09T10:04:18.419Z,225.00
2023-05-09T10:05:18.365Z,225.00
2023-05-09T10:06:18.261Z,225.00
2023-05-09T10:07:18.174Z,225.00
2023-05-09T10:08:18.097Z,225.00
2023-05-09T10:09:18.034Z,225.00
2023-05-09T10:10:18.005Z,225.00
2023-05-09T10:11:17.899Z,225.00
2023-05-09T10:12:17.805Z,225.00
2023-05-09T10:13:17.773Z,225.00
2023-05-09T10:14:17.650Z,225.00
2023-05-09T10:15:17.586Z,225.00
2023-05-09T10:16:21.309Z,225.00
2023-05-09T10:17:17.494Z,225.00
2023-05-09T10:18:17.600Z,225.00
2023-05-09T10:19:17.273Z,225.00
2023-05-09T10:20:17.357Z,225.00
2023-05-09T10:21:17.128Z,225.00
2023-05-09T10:22:17.059Z,225.00
2023-05-09T10:23:16.982Z,225.00
2023-05-09T10:24:16.910Z,225.00
2023-05-09T10:25:17.016Z,225.00
2023-05-09T10:26:16.760Z,225.00
2023-05-09T10:27:16.688Z,225.00
2023-05-09T10:28:16.610Z,225.00
2023-05-09T10:29:16.532Z,225.00
2023-05-09T10:30:16.461Z,225.00
2023-05-09T10:31:16.451Z,225.00
2023-05-09T10:32:16.318Z,225.00
2023-05-09T10:33:16.261Z,225.00
2023-05-09T10:34:16.163Z,219.38
2023-05-09T10:35:16.421Z,225.00
2023-05-09T10:36:16.020Z,225.00
2023-05-09T10:37:15.935Z,225.00
2023-05-09T10:38:15.863Z,225.00
2023-05-09T10:39:15.791Z,225.00
2023-05-09T10:40:15.743Z,225.00
2023-05-09T10:41:15.648Z,225.00
2023-05-09T10:42:15.575Z,225.00
2023-05-09T10:43:15.496Z,225.00
2023-05-09T10:44:15.418Z,219.38
2023-05-09T10:45:15.600Z,219.38
2023-05-09T10:46:15.343Z,219.38
2023-05-09T10:47:15.196Z,219.38
2023-05-09T10:48:15.129Z,219.38
2023-05-09T10:49:15.046Z,219.38
2023-05-09T10:50:15.074Z,219.38
2023-05-09T10:51:14.909Z,219.38
2023-05-09T10:52:14.830Z,208.13
2023-05-09T10:53:14.756Z,213.75
2023-05-09T10:54:14.688Z,213.75
2023-05-09T10:55:14.750Z,213.75
2023-05-09T10:56:14.533Z,213.75
2023-05-09T10:57:14.459Z,213.75
2023-05-09T10:58:14.381Z,213.75
2023-05-09T10:59:14.306Z,213.75
2023-05-09T11:00:14.244Z,213.75
2023-05-09T11:01:14.209Z,213.75
2023-05-09T11:02:14.085Z,213.75
2023-05-09T11:03:14.105Z,213.75
2023-05-09T11:04:13.944Z,213.75
2023-05-09T11:05:14.077Z,213.75
2023-05-09T11:06:13.897Z,213.75
2023-05-09T11:07:13.722Z,213.75
2023-05-09T11:08:13.650Z,213.75
2023-05-09T11:09:13.579Z,213.75
2023-05-09T11:10:13.516Z,213.75
2023-05-09T11:11:13.427Z,208.13
2023-05-09T11:12:13.364Z,208.13
2023-05-09T11:13:13.325Z,208.13
2023-05-09T11:14:13.213Z,191.25
2023-05-09T11:15:13.266Z,196.88
2023-05-09T11:16:13.121Z,180.00
2023-05-09T11:17:13.011Z,163.13
2023-05-09T11:18:13.003Z,180.00
2023-05-09T11:19:12.843Z,196.88
2023-05-09T11:20:12.767Z,196.88
2023-05-09T11:21:12.690Z,180.00
2023-05-09T11:22:12.725Z,196.88
2023-05-09T11:23:12.550Z,202.50
2023-05-09T11:24:12.479Z,196.88
2023-05-09T11:25:12.619Z,185.63
2023-05-09T11:26:12.324Z,191.25
2023-05-09T11:27:12.254Z,191.25
2023-05-09T11:28:12.203Z,191.25
2023-05-09T11:29:12.109Z,196.88
2023-05-09T11:30:12.036Z,202.50
2023-05-09T11:31:11.985Z,202.50
2023-05-09T11:32:12.013Z,196.88
2023-05-09T11:33:11.873Z,185.63
2023-05-09T11:34:11.748Z,196.88
2023-05-09T11:35:11.824Z,196.88
2023-05-09T11:36:11.604Z,196.88
2023-05-09T11:37:11.532Z,196.88
2023-05-09T11:38:11.558Z,191.25
2023-05-09T11:39:11.397Z,180.00
2023-05-09T11:40:11.307Z,191.25
2023-05-09T11:41:11.233Z,185.63
2023-05-09T11:42:11.155Z,191.25
2023-05-09T11:43:11.090Z,196.88
2023-05-09T11:44:11.009Z,196.88
2023-05-09T11:45:10.932Z,191.25
2023-05-09T11:46:10.889Z,191.25
2023-05-09T11:47:10.794Z,185.63
2023-05-09T11:48:10.774Z,180.00
2023-05-09T11:49:12.170Z,185.63
2023-05-09T11:50:10.604Z,191.25
2023-05-09T11:51:10.500Z,191.25
2023-05-09T11:52:10.424Z,191.25
2023-05-09T11:53:10.353Z,196.88
2023-05-09T11:54:10.383Z,196.88
2023-05-09T11:55:12.286Z,196.88
2023-05-09T11:56:10.211Z,196.88
2023-05-09T11:57:10.055Z,191.25
2023-05-09T11:58:09.989Z,185.63
2023-05-09T11:59:09.909Z,196.88
2023-05-09T12:00:09.850Z,180.00
2023-05-09T12:01:11.247Z,191.25
2023-05-09T12:02:09.740Z,191.25
2023-05-09T12:03:09.795Z,191.25
2023-05-09T12:04:09.633Z,191.25
2023-05-09T12:05:09.473Z,180.00
2023-05-09T12:06:09.405Z,191.25
2023-05-09T12:07:09.331Z,185.63
2023-05-09T12:08:09.257Z,191.25
2023-05-09T12:09:09.177Z,191.25
2023-05-09T12:10:09.244Z,185.63
2023-05-09T12:11:09.033Z,185.63
2023-05-09T12:12:08.958Z,180.00
2023-05-09T12:13:09.012Z,174.38
2023-05-09T12:14:08.816Z,180.00
2023-05-09T12:15:08.739Z,174.38
2023-05-09T12:16:08.726Z,168.75
2023-05-09T12:17:08.622Z,168.75
2023-05-09T12:18:08.685Z,168.75
2023-05-09T12:19:08.447Z,168.75
2023-05-09T12:20:08.395Z,168.75
2023-05-09T12:21:08.315Z,174.38
2023-05-09T12:22:08.233Z,180.00
2023-05-09T12:23:08.164Z,174.38
2023-05-09T12:24:08.084Z,174.38
2023-05-09T12:25:08.026Z,174.38
2023-05-09T12:26:08.039Z,180.00
2023-05-09T12:27:07.884Z,168.75
2023-05-09T12:28:07.806Z,174.38
2023-05-09T12:29:07.730Z,163.13
2023-05-09T12:30:07.649Z,168.75
2023-05-09T12:31:07.613Z,168.75
2023-05-09T12:32:07.507Z,174.38
2023-05-09T12:33:07.447Z,174.38
2023-05-09T12:34:07.360Z,168.75
2023-05-09T12:35:07.292Z,168.75
2023-05-09T12:36:07.224Z,180.00
2023-05-09T12:37:07.135Z,180.00
2023-05-09T12:38:07.081Z,174.38
2023-05-09T12:39:06.993Z,174.38
2023-05-09T12:40:06.922Z,174.38
2023-05-09T12:41:09.107Z,180.00
2023-05-09T12:42:06.881Z,191.25
2023-05-09T12:43:06.707Z,180.00
2023-05-09T12:44:06.641Z,168.75
2023-05-09T12:45:06.605Z,174.38
2023-05-09T12:46:06.485Z,157.50
2023-05-09T12:47:06.427Z,185.63
2023-05-09T12:48:06.375Z,185.63
2023-05-09T12:49:06.273Z,185.63
2023-05-09T12:50:06.199Z,180.00
2023-05-09T12:51:06.125Z,180.00